createdAt,value
2022-12-19T00:01:18.502Z,35.30
2022-12-19T00:03:53.610Z,37.38
2022-12-19T00:06:19.902Z,34.50
2022-12-19T00:08:48.147Z,37.42
2022-12-19T00:11:15.236Z,32.15
2022-12-19T00:13:42.089Z,36.25
2022-12-19T00:16:12.604Z,31.70
2022-12-19T00:18:42.554Z,35.17
2022-12-19T00:21:11.116Z,33.28
2022-12-19T00:23:37.102Z,37.30
2022-12-19T00:26:33.801Z,35.13
2022-12-19T00:29:02.993Z,36.50
2022-12-19T00:31:31.710Z,37.80
2022-12-19T00:33:57.615Z,36.50
2022-12-19T00:36:28.835Z,38.85
2022-12-19T00:38:56.711Z,39.08
2022-12-19T00:41:31.366Z,37.70
2022-12-19T00:44:00.021Z,37.97
2022-12-19T00:46:27.075Z,34.15
2022-12-19T00:48:53.139Z,34.65
2022-12-19T00:51:21.755Z,35.90
2022-12-19T00:53:49.059Z,33.85
2022-12-19T00:56:17.412Z,37.40
2022-12-19T00:58:47.021Z,35.33
2022-12-19T01:01:19.573Z,40.35
2022-12-19T01:04:18.814Z,38.70
2022-12-19T01:06:32.228Z,40.72
2022-12-19T01:08:59.183Z,38.80
2022-12-19T01:11:43.626Z,39.80
2022-12-19T01:14:12.132Z,42.80
2022-12-19T01:16:39.933Z,38.42
2022-12-19T01:19:06.985Z,38.47
2022-12-19T01:21:33.146Z,36.85
2022-12-19T01:23:58.945Z,40.10
2022-12-19T01:26:24.755Z,38.67
2022-12-19T01:28:50.552Z,40.50
2022-12-19T01:31:16.358Z,38.67
2022-12-19T01:33:44.650Z,38.45
2022-12-19T01:36:11.362Z,34.40
2022-12-19T01:38:37.165Z,38.72
2022-12-19T01:41:03.460Z,35.85
2022-12-19T01:43:50.941Z,37.35
2022-12-19T01:46:27.084Z,37.92
2022-12-19T01:48:55.680Z,35.72
2022-12-19T01:51:36.751Z,35.85
2022-12-19T01:54:07.610Z,37.53
2022-12-19T01:56:38.510Z,34.55
2022-12-19T01:59:09.444Z,33.47
2022-12-19T02:01:44.613Z,38.00
2022-12-19T02:04:18.339Z,38.90
2022-12-19T02:06:44.344Z,38.30
2022-12-19T02:09:10.998Z,42.83
2022-12-19T02:11:36.923Z,39.25
2022-12-19T02:14:02.974Z,35.85
2022-12-19T02:16:34.518Z,44.47
2022-12-19T02:19:38.510Z,41.67
2022-12-19T02:22:34.931Z,39.72
2022-12-19T02:27:47.082Z,39.45
2022-12-19T02:30:17.507Z,46.40
2022-12-19T02:32:59.737Z,43.08
2022-12-19T02:35:30.414Z,39.75
2022-12-19T02:38:09.347Z,38.42
2022-12-19T02:40:44.338Z,37.47
2022-12-19T02:43:13.863Z,40.92
2022-12-19T02:45:41.269Z,42.00
2022-12-19T02:48:09.203Z,40.60
2022-12-19T02:50:53.177Z,43.72
2022-12-19T02:53:23.509Z,40.28
2022-12-19T02:56:21.988Z,41.72
2022-12-19T02:58:51.927Z,39.30
2022-12-19T03:01:35.934Z,44.47
2022-12-19T03:04:04.889Z,42.78
2022-12-19T03:06:59.825Z,41.25
2022-12-19T03:09:33.272Z,41.22
2022-12-19T03:12:11.607Z,43.95
2022-12-19T03:14:40.871Z,40.72
2022-12-19T03:17:07.881Z,44.63
2022-12-19T03:19:39.838Z,46.65
2022-12-19T03:22:06.858Z,40.78
2022-12-19T03:24:32.872Z,42.15
2022-12-19T03:27:07.896Z,40.08
2022-12-19T03:29:57.339Z,38.08
2022-12-19T03:32:24.448Z,35.78
2022-12-19T03:34:56.532Z,36.05
2022-12-19T03:37:27.357Z,31.90
2022-12-19T03:39:57.938Z,33.13
2022-12-19T03:42:45.932Z,31.58
2022-12-19T03:45:16.719Z,37.67
2022-12-19T03:47:54.679Z,32.30
2022-12-19T03:50:23.423Z,34.30
2022-12-19T03:52:57.414Z,36.15
2022-12-19T03:55:31.572Z,37.75
2022-12-19T03:58:11.915Z,38.17
2022-12-19T04:00:40.923Z,37.90
2022-12-19T04:03:08.874Z,32.35
2022-12-19T04:05:37.671Z,33.90
2022-12-19T04:08:07.154Z,31.75
2022-12-19T04:10:40.348Z,33.80
2022-12-19T04:13:12.999Z,34.28
2022-12-19T04:15:56.867Z,35.38
2022-12-19T04:18:23.365Z,33.95
2022-12-19T04:20:58.773Z,36.40
2022-12-19T04:23:32.673Z,36.50
2022-12-19T04:26:02.493Z,34.22
2022-12-19T04:28:37.587Z,35.80
2022-12-19T04:31:04.888Z,36.53
2022-12-19T04:33:30.843Z,35.40
2022-12-19T04:35:56.834Z,35.22
2022-12-19T04:38:22.838Z,35.65
2022-12-19T04:40:48.795Z,36.88
2022-12-19T04:43:14.586Z,37.15
2022-12-19T04:45:41.478Z,34.40
2022-12-19T04:48:08.168Z,35.53
2022-12-19T04:50:35.257Z,36.20
2022-12-19T04:53:01.216Z,38.92
2022-12-19T04:55:27.099Z,38.83
2022-12-19T04:57:52.933Z,32.97
2022-12-19T05:00:18.835Z,34.10
2022-12-19T05:02:45.087Z,36.95
2022-12-19T05:05:11.012Z,34.97
2022-12-19T05:07:36.958Z,36.08
2022-12-19T05:10:03.428Z,36.08
2022-12-19T05:12:29.306Z,32.65
2022-12-19T05:14:55.343Z,34.05
2022-12-19T05:17:21.120Z,31.25
2022-12-19T05:19:46.955Z,34.22
2022-12-19T05:22:12.934Z,37.08
2022-12-19T05:24:39.507Z,33.72
2022-12-19T05:27:05.277Z,30.55
2022-12-19T05:29:31.262Z,36.17
2022-12-19T05:31:57.000Z,31.40
2022-12-19T05:34:23.859Z,31.98
2022-12-19T05:36:49.962Z,33.10
2022-12-19T05:39:16.074Z,32.92
2022-12-19T05:41:42.073Z,32.17
2022-12-19T05:44:08.672Z,32.45
2022-12-19T05:46:34.667Z,31.50
2022-12-19T05:49:00.583Z,26.90
2022-12-19T05:51:26.537Z,25.98
2022-12-19T05:53:52.383Z,25.30
2022-12-19T05:56:20.976Z,24.40
2022-12-19T05:58:47.198Z,28.08
2022-12-19T06:01:21.666Z,27.83
2022-12-19T06:03:48.205Z,23.00
2022-12-19T06:06:18.953Z,22.92
2022-12-19T06:08:44.854Z,24.40
2022-12-19T06:11:12.063Z,21.50
2022-12-19T06:13:38.459Z,21.48
2022-12-19T06:16:18.990Z,19.10
2022-12-19T06:18:46.050Z,21.98
2022-12-19T06:21:20.741Z,20.75
2022-12-19T06:23:46.644Z,14.90
2022-12-19T06:26:19.121Z,20.55
2022-12-19T06:28:49.612Z,20.45
2022-12-19T06:31:16.534Z,19.58
2022-12-19T06:33:42.460Z,18.92
2022-12-19T06:36:28.522Z,15.40
2022-12-19T06:41:39.793Z,19.73
2022-12-19T06:44:07.756Z,20.48
2022-12-19T06:46:34.846Z,20.52
2022-12-19T06:49:00.881Z,19.75
2022-12-19T06:51:26.733Z,19.50
2022-12-19T06:53:52.943Z,23.27
2022-12-19T06:56:19.604Z,24.80
2022-12-19T06:58:45.939Z,22.65
2022-12-19T07:01:19.833Z,22.23
2022-12-19T07:03:47.793Z,24.10
2022-12-19T07:06:13.763Z,26.00
2022-12-19T07:08:39.720Z,27.92
2022-12-19T07:11:05.610Z,21.17
2022-12-19T07:13:31.493Z,23.42
2022-12-19T07:16:01.769Z,23.40
2022-12-19T07:18:31.462Z,27.92
2022-12-19T07:20:57.490Z,31.70
2022-12-19T07:23:23.616Z,29.70
2022-12-19T07:25:49.628Z,27.02
2022-12-19T07:28:16.120Z,29.73
2022-12-19T07:30:42.030Z,32.80
2022-12-19T07:33:10.950Z,34.25
2022-12-19T07:35:37.344Z,31.60
2022-12-19T07:38:04.637Z,32.13
2022-12-19T07:40:30.431Z,34.67
2022-12-19T07:43:01.940Z,32.83
2022-12-19T07:45:29.234Z,32.97
2022-12-19T07:47:55.449Z,34.00
2022-12-19T07:50:21.644Z,32.15
2022-12-19T07:52:47.463Z,34.80
2022-12-19T07:55:13.368Z,34.65
2022-12-19T07:57:39.256Z,35.72
2022-12-19T08:00:05.830Z,34.55
2022-12-19T08:02:32.915Z,35.75
2022-12-19T08:05:02.573Z,33.80
2022-12-19T08:07:28.381Z,35.67
2022-12-19T08:09:54.325Z,33.22
2022-12-19T08:12:20.134Z,33.75
2022-12-19T08:14:46.051Z,34.00
2022-12-19T08:17:20.172Z,38.10
2022-12-19T08:19:46.696Z,36.03
2022-12-19T08:22:12.536Z,32.63
2022-12-19T08:24:38.745Z,35.63
2022-12-19T08:27:04.611Z,35.83
2022-12-19T08:29:30.619Z,38.75
2022-12-19T08:31:56.426Z,32.85
2022-12-19T08:34:22.273Z,35.33
2022-12-19T08:36:48.128Z,34.38
2022-12-19T08:39:14.000Z,34.85
2022-12-19T08:41:39.791Z,33.33
2022-12-19T08:44:05.657Z,33.35
2022-12-19T08:46:31.496Z,35.30
2022-12-19T08:48:57.724Z,36.60
2022-12-19T08:51:23.777Z,35.15
2022-12-19T08:53:50.525Z,37.97
2022-12-19T08:56:19.707Z,34.95
2022-12-19T08:58:46.102Z,34.20
2022-12-19T09:01:15.646Z,40.25
2022-12-19T09:03:55.459Z,33.95
2022-12-19T09:06:27.803Z,38.33
2022-12-19T09:08:53.778Z,30.80
2022-12-19T09:11:25.924Z,35.72
2022-12-19T09:13:56.418Z,35.17
2022-12-19T09:16:23.648Z,30.42
2022-12-19T09:18:52.619Z,33.15
2022-12-19T09:21:20.510Z,28.83
2022-12-19T09:23:53.725Z,38.05
2022-12-19T09:26:22.255Z,33.28
2022-12-19T09:28:50.246Z,33.22
2022-12-19T09:31:25.308Z,30.48
2022-12-19T09:33:52.304Z,31.90
2022-12-19T09:36:22.675Z,33.85
2022-12-19T09:38:49.319Z,33.80
2022-12-19T09:41:43.421Z,31.38
2022-12-19T09:44:21.163Z,31.38
2022-12-19T09:46:51.328Z,31.80
2022-12-19T09:49:21.763Z,27.90
2022-12-19T09:51:55.916Z,31.13
2022-12-19T09:54:31.613Z,34.60
2022-12-19T09:57:02.300Z,32.97
2022-12-19T09:59:47.760Z,29.30
2022-12-19T10:02:34.773Z,28.55
2022-12-19T10:05:23.886Z,30.20
2022-12-19T10:08:09.103Z,30.20
2022-12-19T10:12:36.543Z,29.45
2022-12-19T10:14:01.558Z,31.85
2022-12-19T10:17:22.641Z,31.30
2022-12-19T10:19:52.567Z,30.50
2022-12-19T10:22:27.243Z,28.90
2022-12-19T10:25:31.739Z,32.17
2022-12-19T10:28:11.313Z,33.13
2022-12-19T10:31:32.274Z,30.10
2022-12-19T10:34:15.605Z,27.13
2022-12-19T10:37:25.332Z,36.95
2022-12-19T10:39:43.180Z,24.35
2022-12-19T10:42:18.923Z,32.97
2022-12-19T10:44:48.503Z,26.15
2022-12-19T10:47:16.420Z,23.70
2022-12-19T10:49:42.428Z,24.52
2022-12-19T10:52:12.956Z,25.60
2022-12-19T10:54:41.043Z,27.15
2022-12-19T10:57:24.961Z,22.35
2022-12-19T11:00:20.265Z,21.92
2022-12-19T11:02:50.849Z,25.60
2022-12-19T11:05:24.731Z,23.27
2022-12-19T11:08:13.022Z,26.40
2022-12-19T11:12:03.961Z,21.73
2022-12-19T11:18:37.845Z,23.40
2022-12-19T11:24:13.680Z,22.13
2022-12-19T11:29:19.482Z,19.17
2022-12-19T11:29:27.343Z,25.77
2022-12-19T11:29:32.362Z,18.90
2022-12-19T11:29:46.779Z,23.75
2022-12-19T11:34:22.787Z,16.20
2022-12-19T11:36:55.204Z,17.55
2022-12-19T11:39:26.423Z,20.85
2022-12-19T11:42:05.321Z,16.88
2022-12-19T11:44:57.421Z,18.70
2022-12-19T11:47:50.785Z,18.50
2022-12-19T11:50:28.221Z,19.88
2022-12-19T11:53:29.769Z,16.27
2022-12-19T11:56:08.092Z,24.30
2022-12-19T11:58:48.842Z,16.67
2022-12-19T12:01:23.932Z,18.40
2022-12-19T12:04:02.212Z,20.17
2022-12-19T12:06:38.620Z,17.27
2022-12-19T12:15:22.717Z,19.58
2022-12-19T12:20:05.188Z,16.70
2022-12-19T12:21:23.882Z,21.73
2022-12-19T12:31:06.436Z,16.83
2022-12-19T12:31:11.974Z,16.52
2022-12-19T12:31:28.655Z,16.38
2022-12-19T12:32:02.266Z,17.17
2022-12-19T12:35:48.783Z,19.10
2022-12-19T12:40:26.375Z,14.60
2022-12-19T12:43:16.847Z,17.55
2022-12-19T12:45:46.696Z,16.35
2022-12-19T12:48:13.498Z,15.85
2022-12-19T12:50:40.970Z,14.35
2022-12-19T12:53:10.335Z,15.05
2022-12-19T12:55:42.715Z,13.50
2022-12-19T12:58:54.343Z,19.17
2022-12-19T13:01:29.566Z,15.60
2022-12-19T13:04:03.844Z,14.43
2022-12-19T13:06:38.698Z,13.57
2022-12-19T13:09:28.173Z,16.05
2022-12-19T13:12:45.861Z,14.52
2022-12-19T13:15:26.937Z,11.45
2022-12-19T13:17:52.703Z,15.77
2022-12-19T13:20:18.487Z,15.52
2022-12-19T13:23:01.112Z,13.27
2022-12-19T13:25:46.778Z,16.30
2022-12-19T13:28:21.641Z,16.30
2022-12-19T13:31:21.170Z,14.48
2022-12-19T13:33:51.074Z,11.65
2022-12-19T13:39:59.857Z,12.15
2022-12-19T13:40:01.049Z,11.80
2022-12-19T13:42:52.627Z,12.73
2022-12-19T13:45:34.601Z,13.68
2022-12-19T13:48:03.874Z,12.27
2022-12-19T13:50:36.972Z,12.18
2022-12-19T13:53:13.173Z,11.10
2022-12-19T13:55:41.995Z,18.25
2022-12-19T13:58:29.227Z,13.13
2022-12-19T14:01:00.350Z,13.32
2022-12-19T14:03:36.030Z,11.70
2022-12-19T14:06:18.075Z,13.90
2022-12-19T14:08:47.149Z,14.02
2022-12-19T14:11:30.850Z,15.82
2022-12-19T14:14:27.492Z,14.68
2022-12-19T14:16:55.461Z,15.80
2022-12-19T14:19:25.195Z,13.98
2022-12-19T14:22:04.314Z,13.02
2022-12-19T14:24:38.695Z,15.88
2022-12-19T14:28:19.051Z,14.32
2022-12-19T14:30:28.245Z,15.02
2022-12-19T14:33:46.641Z,11.07
2022-12-19T14:36:05.958Z,16.85
2022-12-19T14:39:27.397Z,14.18
2022-12-19T14:42:00.967Z,15.52
2022-12-19T14:52:35.484Z,12.93
2022-12-19T14:54:08.290Z,14.98
2022-12-19T14:54:41.629Z,13.50
2022-12-19T14:54:41.911Z,16.55
2022-12-19T14:56:45.100Z,12.57
2022-12-19T14:59:03.567Z,12.52
2022-12-19T15:01:33.085Z,12.77
2022-12-19T15:04:52.826Z,12.55
2022-12-19T15:07:08.677Z,15.88
2022-12-19T15:11:08.135Z,9.77
2022-12-19T15:14:48.627Z,12.57
2022-12-19T15:16:06.541Z,9.88
2022-12-19T15:18:32.451Z,12.15
2022-12-19T15:21:00.632Z,10.65
2022-12-19T15:23:27.852Z,12.93
2022-12-19T15:26:04.525Z,12.77
2022-12-19T15:28:40.808Z,11.80
2022-12-19T15:31:28.965Z,15.13
2022-12-19T15:36:41.493Z,11.77
2022-12-19T15:39:07.385Z,17.88
2022-12-19T15:41:33.675Z,13.95
2022-12-19T15:44:06.761Z,11.27
2022-12-19T15:46:32.974Z,13.63
2022-12-19T15:48:59.012Z,14.00
2022-12-19T15:51:24.881Z,16.70
2022-12-19T15:53:51.073Z,12.38
2022-12-19T15:56:47.298Z,12.30
2022-12-19T15:59:29.792Z,10.68
2022-12-19T16:02:01.219Z,16.00
2022-12-19T16:04:27.938Z,13.75
2022-12-19T16:06:54.065Z,10.70
2022-12-19T16:09:25.541Z,12.35
2022-12-19T16:11:53.358Z,12.20
2022-12-19T16:14:22.014Z,17.33
2022-12-19T16:16:54.819Z,12.00
2022-12-19T16:19:28.036Z,9.70
2022-12-19T16:21:56.328Z,11.48
2022-12-19T16:24:23.158Z,11.55
2022-12-19T16:26:57.760Z,11.27
2022-12-19T16:29:28.968Z,12.15
2022-12-19T16:31:55.017Z,14.38
2022-12-19T16:34:23.331Z,13.45
2022-12-19T16:36:50.533Z,15.35
2022-12-19T16:39:16.476Z,11.85
2022-12-19T16:41:44.491Z,9.80
2022-12-19T16:44:22.066Z,11.38
2022-12-19T16:46:51.266Z,11.90
2022-12-19T16:49:24.526Z,9.23
2022-12-19T16:51:50.957Z,11.23
2022-12-19T16:54:18.135Z,12.40
2022-12-19T16:56:49.152Z,11.18
2022-12-19T16:59:20.350Z,12.57
2022-12-19T17:01:47.060Z,13.18
2022-12-19T17:08:26.064Z,12.38
2022-12-19T17:10:52.778Z,10.15
2022-12-19T17:13:18.667Z,12.02
2022-12-19T17:15:45.845Z,12.95
2022-12-19T17:18:21.680Z,13.70
2022-12-19T17:20:47.665Z,13.15
2022-12-19T17:23:17.267Z,9.05
2022-12-19T17:25:44.179Z,10.13
2022-12-19T17:28:11.877Z,12.35
2022-12-19T17:30:40.102Z,10.82
2022-12-19T17:36:53.840Z,13.23
2022-12-19T17:43:40.106Z,13.83
2022-12-19T17:46:21.142Z,14.15
2022-12-19T17:48:50.824Z,11.30
2022-12-19T17:51:18.308Z,11.40
2022-12-19T17:53:45.365Z,12.80
2022-12-19T17:57:02.235Z,10.35
2022-12-19T18:00:30.711Z,13.65
2022-12-19T18:03:24.711Z,10.98
2022-12-19T18:32:50.378Z,14.15
2022-12-19T18:41:49.707Z,13.65
2022-12-19T18:44:15.819Z,11.45
2022-12-19T18:46:42.239Z,12.85
2022-12-19T18:49:16.016Z,13.82
2022-12-19T18:51:44.035Z,13.23
2022-12-19T18:54:20.798Z,18.20
2022-12-19T18:56:47.214Z,12.48
2022-12-19T18:59:13.185Z,15.48
2022-12-19T19:01:43.210Z,13.32
2022-12-19T19:08:17.649Z,10.98
2022-12-19T19:10:45.799Z,11.20
2022-12-19T19:13:13.235Z,11.63
2022-12-19T19:15:47.221Z,11.40
2022-12-19T19:18:13.255Z,15.07
2022-12-19T19:20:41.083Z,14.13
2022-12-19T19:23:09.742Z,12.35
2022-12-19T19:25:35.916Z,11.50
2022-12-19T19:28:04.104Z,12.13
2022-12-19T19:30:31.575Z,11.32
2022-12-19T19:33:06.581Z,11.27
2022-12-19T19:35:34.096Z,14.55
2022-12-19T19:38:06.014Z,10.68
2022-12-19T19:40:33.895Z,12.43
2022-12-19T19:43:00.003Z,15.93
2022-12-19T19:45:27.092Z,11.98
2022-12-19T19:47:54.490Z,11.80
2022-12-19T19:50:20.772Z,10.73
2022-12-19T19:52:46.651Z,11.18
2022-12-19T19:55:15.210Z,17.38
2022-12-19T19:57:41.119Z,10.52
2022-12-19T20:00:08.360Z,8.70
2022-12-19T20:02:34.728Z,14.25
2022-12-19T20:05:00.734Z,11.60
2022-12-19T20:07:26.582Z,12.32
2022-12-19T20:09:52.740Z,10.60
2022-12-19T20:12:18.786Z,10.52
2022-12-19T20:14:44.729Z,13.38
2022-12-19T20:17:11.000Z,14.77
2022-12-19T20:19:37.395Z,14.32
2022-12-19T20:22:03.276Z,13.13
2022-12-19T20:24:29.284Z,11.32
2022-12-19T20:26:56.270Z,13.13
2022-12-19T20:29:22.361Z,11.30
2022-12-19T20:31:48.433Z,13.20
2022-12-19T20:34:15.308Z,11.38
2022-12-19T20:36:42.135Z,12.98
2022-12-19T20:39:08.701Z,13.05
2022-12-19T20:41:34.885Z,13.13
2022-12-19T20:44:00.952Z,12.05
2022-12-19T20:46:26.906Z,15.85
2022-12-19T20:48:53.246Z,12.93
2022-12-19T20:51:21.261Z,12.10
2022-12-19T20:53:47.715Z,13.07
2022-12-19T20:56:16.090Z,12.55
2022-12-19T20:58:42.030Z,11.88
2022-12-19T21:01:10.634Z,10.70
2022-12-19T21:03:37.730Z,10.95
2022-12-19T21:06:04.377Z,13.40
2022-12-19T21:08:30.626Z,11.50
2022-12-19T21:10:56.504Z,10.82
2022-12-19T21:13:23.249Z,10.43
2022-12-19T21:15:53.256Z,12.90
2022-12-19T21:18:19.372Z,11.48
2022-12-19T21:20:45.540Z,9.70
2022-12-19T21:23:11.456Z,10.48
2022-12-19T21:25:37.341Z,13.13
2022-12-19T21:28:03.349Z,8.32
2022-12-19T21:30:29.335Z,14.55
2022-12-19T21:32:55.107Z,9.25
2022-12-19T21:35:21.178Z,10.55
2022-12-19T21:37:50.564Z,11.25
2022-12-19T21:40:17.178Z,10.00
2022-12-19T21:42:43.140Z,8.68
2022-12-19T21:45:10.109Z,10.05
2022-12-19T21:47:38.585Z,10.00
2022-12-19T21:50:06.884Z,10.73
2022-12-19T21:52:32.744Z,8.63
2022-12-19T21:54:58.694Z,8.90
2022-12-19T21:57:24.540Z,10.30
2022-12-19T21:59:50.347Z,13.23
2022-12-19T22:02:16.280Z,7.57
2022-12-19T22:04:42.188Z,7.57
2022-12-19T22:07:08.038Z,9.68
2022-12-19T22:09:33.843Z,7.82
2022-12-19T22:11:59.639Z,8.70
2022-12-19T22:14:25.562Z,7.93
2022-12-19T22:16:51.475Z,7.30
2022-12-19T22:19:18.873Z,7.72
2022-12-19T22:21:46.162Z,8.18
2022-12-19T22:24:13.726Z,12.07
2022-12-19T22:26:40.082Z,8.43
2022-12-19T22:29:12.236Z,13.43
2022-12-19T22:31:39.152Z,9.90
2022-12-19T22:34:08.320Z,7.97
2022-12-19T22:36:36.113Z,14.00
2022-12-19T22:39:04.227Z,9.45
2022-12-19T22:41:32.171Z,8.90
2022-12-19T22:43:58.229Z,11.90
2022-12-19T22:46:27.565Z,8.52
2022-12-19T22:48:56.933Z,15.07
2022-12-19T22:51:23.408Z,8.27
2022-12-19T22:53:49.284Z,9.55
2022-12-19T22:56:17.596Z,12.68
2022-12-19T22:58:46.076Z,8.80
2022-12-19T23:01:26.388Z,10.48
2022-12-19T23:03:54.947Z,8.05
2022-12-19T23:06:22.611Z,8.43
2022-12-19T23:08:48.876Z,7.75
2022-12-19T23:11:17.605Z,9.20
2022-12-19T23:13:44.856Z,6.55
2022-12-19T23:16:11.109Z,7.50
2022-12-19T23:18:37.544Z,7.32
2022-12-19T23:21:09.838Z,7.68
2022-12-19T23:23:41.797Z,5.15
2022-12-19T23:26:15.775Z,6.75
2022-12-19T23:28:43.963Z,6.85
2022-12-19T23:31:12.444Z,5.95
2022-12-19T23:33:38.361Z,7.95
2022-12-19T23:36:04.569Z,7.97
2022-12-19T23:38:30.374Z,10.13
2022-12-19T23:41:04.842Z,6.40
2022-12-19T23:43:31.873Z,9.07
2022-12-19T23:45:57.729Z,6.47
2022-12-19T23:48:25.499Z,6.55
2022-12-19T23:51:03.338Z,6.03
2022-12-19T23:53:30.365Z,5.93
2022-12-19T23:55:56.383Z,6.70
2022-12-19T23:58:24.917Z,6.75
